sensor_id;sensor_type;location;lat;lon;timestamp;P1;durP1;ratioP1;P2;durP2;ratioP2
12768;SDS011;6448;48.916;8.990;2022-10-31T00:01:02;2.30;;;1.83;;
12768;SDS011;6448;48.916;8.990;2022-10-31T00:02:10;3.20;;;1.70;;
12768;SDS011;6448;48.916;8.990;2022-10-31T00:03:11;1.88;;;1.67;;
12768;SDS011;6448;48.916;8.990;2022-10-31T00:04:12;1.85;;;1.55;;
12768;SDS011;6448;48.916;8.990;2022-10-31T00:05:15;1.93;;;1.73;;
12768;SDS011;6448;48.916;8.990;2022-10-31T00:06:16;2.17;;;1.70;;
12768;SDS011;6448;48.916;8.990;2022-10-31T00:07:18;1.83;;;1.67;;
12768;SDS011;6448;48.916;8.990;2022-10-31T00:08:19;2.20;;;1.67;;
12768;SDS011;6448;48.916;8.990;2022-10-31T00:09:21;2.20;;;1.63;;
12768;SDS011;6448;48.916;8.990;2022-10-31T00:10:22;2.35;;;1.60;;
12768;SDS011;6448;48.916;8.990;2022-10-31T00:11:23;2.20;;;1.60;;
12768;SDS011;6448;48.916;8.990;2022-10-31T00:12:26;2.60;;;1.70;;
12768;SDS011;6448;48.916;8.990;2022-10-31T00:13:27;1.70;;;1.52;;
12768;SDS011;6448;48.916;8.990;2022-10-31T00:14:28;2.07;;;1.73;;
12768;SDS011;6448;48.916;8.990;2022-10-31T00:15:31;1.80;;;1.60;;
12768;SDS011;6448;48.916;8.990;2022-10-31T00:16:33;2.22;;;1.92;;
12768;SDS011;6448;48.916;8.990;2022-10-31T00:17:34;2.05;;;1.63;;
12768;SDS011;6448;48.916;8.990;2022-10-31T00:18:36;2.70;;;1.90;;
12768;SDS011;6448;48.916;8.990;2022-10-31T00:19:38;2.05;;;1.70;;
12768;SDS011;6448;48.916;8.990;2022-10-31T00:20:40;2.37;;;1.63;;
12768;SDS011;6448;48.916;8.990;2022-10-31T00:21:41;2.00;;;1.70;;
12768;SDS011;6448;48.916;8.990;2022-10-31T00:22:42;2.67;;;1.90;;
12768;SDS011;6448;48.916;8.990;2022-10-31T00:23:44;2.00;;;1.67;;
12768;SDS011;6448;48.916;8.990;2022-10-31T00:24:45;2.20;;;1.67;;
12768;SDS011;6448;48.916;8.990;2022-10-31T00:25:46;3.17;;;1.88;;
12768;SDS011;6448;48.916;8.990;2022-10-31T00:26:47;1.90;;;1.70;;
12768;SDS011;6448;48.916;8.990;2022-10-31T00:27:49;2.13;;;1.60;;
12768;SDS011;6448;48.916;8.990;2022-10-31T00:28:50;1.90;;;1.65;;
12768;SDS011;6448;48.916;8.990;2022-10-31T00:29:51;2.35;;;1.70;;
12768;SDS011;6448;48.916;8.990;2022-10-31T00:30:52;2.30;;;1.65;;
12768;SDS011;6448;48.916;8.990;2022-10-31T00:31:54;1.90;;;1.70;;
12768;SDS011;6448;48.916;8.990;2022-10-31T00:32:55;2.55;;;1.80;;
12768;SDS011;6448;48.916;8.990;2022-10-31T00:33:57;2.20;;;1.80;;
12768;SDS011;6448;48.916;8.990;2022-10-31T00:35:00;2.45;;;1.70;;
12768;SDS011;6448;48.916;8.990;2022-10-31T00:36:04;2.20;;;1.70;;
12768;SDS011;6448;48.916;8.990;2022-10-31T00:37:06;2.35;;;1.67;;
12768;SDS011;6448;48.916;8.990;2022-10-31T00:38:09;1.80;;;1.58;;
12768;SDS011;6448;48.916;8.990;2022-10-31T00:39:10;1.73;;;1.42;;
12768;SDS011;6448;48.916;8.990;2022-10-31T00:40:12;2.00;;;1.80;;
12768;SDS011;6448;48.916;8.990;2022-10-31T00:41:13;3.17;;;1.70;;
12768;SDS011;6448;48.916;8.990;2022-10-31T00:42:17;2.03;;;1.80;;
12768;SDS011;6448;48.916;8.990;2022-10-31T00:43:18;2.10;;;1.77;;
12768;SDS011;6448;48.916;8.990;2022-10-31T00:44:20;1.80;;;1.70;;
12768;SDS011;6448;48.916;8.990;2022-10-31T00:45:21;1.70;;;1.60;;
12768;SDS011;6448;48.916;8.990;2022-10-31T00:46:23;2.20;;;1.73;;
12768;SDS011;6448;48.916;8.990;2022-10-31T00:47:24;1.95;;;1.70;;
12768;SDS011;6448;48.916;8.990;2022-10-31T00:48:26;2.38;;;1.90;;
12768;SDS011;6448;48.916;8.990;2022-10-31T00:49:27;2.22;;;1.70;;
12768;SDS011;6448;48.916;8.990;2022-10-31T00:50:29;2.30;;;1.80;;
12768;SDS011;6448;48.916;8.990;2022-10-31T00:51:32;2.22;;;1.70;;
12768;SDS011;6448;48.916;8.990;2022-10-31T00:52:34;1.88;;;1.70;;
12768;SDS011;6448;48.916;8.990;2022-10-31T00:53:36;2.08;;;1.83;;
12768;SDS011;6448;48.916;8.990;2022-10-31T00:54:38;2.10;;;1.70;;
12768;SDS011;6448;48.916;8.990;2022-10-31T00:55:39;3.10;;;1.67;;
12768;SDS011;6448;48.916;8.990;2022-10-31T00:56:41;2.10;;;1.70;;
12768;SDS011;6448;48.916;8.990;2022-10-31T00:57:42;2.45;;;1.70;;
12768;SDS011;6448;48.916;8.990;2022-10-31T00:58:44;1.70;;;1.60;;
12768;SDS011;6448;48.916;8.990;2022-10-31T00:59:44;1.95;;;1.65;;
12768;SDS011;6448;48.916;8.990;2022-10-31T01:00:46;2.70;;;1.70;;
12768;SDS011;6448;48.916;8.990;2022-10-31T01:01:54;1.77;;;1.50;;
12768;SDS011;6448;48.916;8.990;2022-10-31T01:02:56;2.13;;;1.88;;
12768;SDS011;6448;48.916;8.990;2022-10-31T01:03:57;1.80;;;1.60;;
12768;SDS011;6448;48.916;8.990;2022-10-31T01:05:00;1.70;;;1.50;;
12768;SDS011;6448;48.916;8.990;2022-10-31T01:06:01;3.17;;;1.90;;
12768;SDS011;6448;48.916;8.990;2022-10-31T01:07:07;2.63;;;1.67;;
12768;SDS011;6448;48.916;8.990;2022-10-31T01:08:08;2.08;;;1.88;;
12768;SDS011;6448;48.916;8.990;2022-10-31T01:09:10;2.70;;;2.03;;
12768;SDS011;6448;48.916;8.990;2022-10-31T01:10:11;2.10;;;1.80;;
12768;SDS011;6448;48.916;8.990;2022-10-31T01:11:16;3.10;;;1.70;;
12768;SDS011;6448;48.916;8.990;2022-10-31T01:12:18;1.80;;;1.67;;
12768;SDS011;6448;48.916;8.990;2022-10-31T01:13:20;2.40;;;1.90;;
12768;SDS011;6448;48.916;8.990;2022-10-31T01:14:21;2.25;;;1.90;;
12768;SDS011;6448;48.916;8.990;2022-10-31T01:15:22;2.40;;;1.97;;
12768;SDS011;6448;48.916;8.990;2022-10-31T01:16:24;2.50;;;1.90;;
12768;SDS011;6448;48.916;8.990;2022-10-31T01:17:27;2.90;;;1.90;;
12768;SDS011;6448;48.916;8.990;2022-10-31T01:18:28;2.70;;;1.80;;
12768;SDS011;6448;48.916;8.990;2022-10-31T01:19:30;2.40;;;1.92;;
12768;SDS011;6448;48.916;8.990;2022-10-31T01:20:31;2.40;;;1.80;;
12768;SDS011;6448;48.916;8.990;2022-10-31T01:21:34;2.28;;;1.90;;
12768;SDS011;6448;48.916;8.990;2022-10-31T01:22:37;2.20;;;1.88;;
12768;SDS011;6448;48.916;8.990;2022-10-31T01:23:39;2.08;;;1.85;;
12768;SDS011;6448;48.916;8.990;2022-10-31T01:24:40;2.45;;;1.83;;
12768;SDS011;6448;48.916;8.990;2022-10-31T01:25:42;2.17;;;2.00;;
12768;SDS011;6448;48.916;8.990;2022-10-31T01:26:42;2.58;;;1.83;;
12768;SDS011;6448;48.916;8.990;2022-10-31T01:27:44;2.00;;;1.80;;
12768;SDS011;6448;48.916;8.990;2022-10-31T01:28:45;1.42;;;1.33;;
12768;SDS011;6448;48.916;8.990;2022-10-31T01:29:49;2.40;;;1.75;;
12768;SDS011;6448;48.916;8.990;2022-10-31T01:30:50;2.55;;;1.67;;
12768;SDS011;6448;48.916;8.990;2022-10-31T01:31:52;2.20;;;1.70;;
12768;SDS011;6448;48.916;8.990;2022-10-31T01:32:53;2.15;;;1.75;;
12768;SDS011;6448;48.916;8.990;2022-10-31T01:33:54;2.17;;;1.70;;
12768;SDS011;6448;48.916;8.990;2022-10-31T01:34:56;1.85;;;1.60;;
12768;SDS011;6448;48.916;8.990;2022-10-31T01:35:57;2.42;;;1.83;;
12768;SDS011;6448;48.916;8.990;2022-10-31T01:36:59;1.98;;;1.75;;
12768;SDS011;6448;48.916;8.990;2022-10-31T01:38:02;2.83;;;1.88;;
12768;SDS011;6448;48.916;8.990;2022-10-31T01:39:04;1.90;;;1.70;;
12768;SDS011;6448;48.916;8.990;2022-10-31T01:40:08;2.58;;;1.65;;
12768;SDS011;6448;48.916;8.990;2022-10-31T01:41:10;2.58;;;1.75;;
12768;SDS011;6448;48.916;8.990;2022-10-31T01:42:16;2.60;;;1.73;;
12768;SDS011;6448;48.916;8.990;2022-10-31T01:43:19;2.33;;;1.70;;
12768;SDS011;6448;48.916;8.990;2022-10-31T01:45:55;2.13;;;1.80;;
12768;SDS011;6448;48.916;8.990;2022-10-31T01:46:57;1.50;;;1.40;;
12768;SDS011;6448;48.916;8.990;2022-10-31T01:48:02;1.90;;;1.63;;
12768;SDS011;6448;48.916;8.990;2022-10-31T01:49:04;2.08;;;1.80;;
12768;SDS011;6448;48.916;8.990;2022-10-31T01:50:12;1.90;;;1.70;;
12768;SDS011;6448;48.916;8.990;2022-10-31T01:51:27;2.30;;;1.60;;
12768;SDS011;6448;48.916;8.990;2022-10-31T01:52:32;1.92;;;1.73;;
12768;SDS011;6448;48.916;8.990;2022-10-31T01:53:38;1.92;;;1.70;;
12768;SDS011;6448;48.916;8.990;2022-10-31T01:54:41;2.30;;;1.70;;
12768;SDS011;6448;48.916;8.990;2022-10-31T01:55:45;2.13;;;1.80;;
12768;SDS011;6448;48.916;8.990;2022-10-31T01:56:50;2.20;;;1.83;;
12768;SDS011;6448;48.916;8.990;2022-10-31T01:57:53;1.83;;;1.70;;
12768;SDS011;6448;48.916;8.990;2022-10-31T01:58:58;2.40;;;1.80;;
12768;SDS011;6448;48.916;8.990;2022-10-31T02:00:04;1.90;;;1.70;;
12768;SDS011;6448;48.916;8.990;2022-10-31T02:01:15;2.00;;;1.70;;
12768;SDS011;6448;48.916;8.990;2022-10-31T02:02:17;2.03;;;1.80;;
12768;SDS011;6448;48.916;8.990;2022-10-31T02:03:20;2.15;;;1.80;;
12768;SDS011;6448;48.916;8.990;2022-10-31T02:04:23;2.65;;;2.10;;
12768;SDS011;6448;48.916;8.990;2022-10-31T02:05:28;2.67;;;2.00;;
12768;SDS011;6448;48.916;8.990;2022-10-31T02:06:32;2.30;;;1.92;;
12768;SDS011;6448;48.916;8.990;2022-10-31T02:07:40;2.17;;;1.90;;
12768;SDS011;6448;48.916;8.990;2022-10-31T02:08:47;2.60;;;1.75;;
12768;SDS011;6448;48.916;8.990;2022-10-31T02:09:49;1.67;;;1.58;;
12768;SDS011;6448;48.916;8.990;2022-10-31T02:10:51;2.17;;;1.80;;
12768;SDS011;6448;48.916;8.990;2022-10-31T02:11:54;2.40;;;1.90;;
12768;SDS011;6448;48.916;8.990;2022-10-31T02:12:58;2.17;;;1.63;;
12768;SDS011;6448;48.916;8.990;2022-10-31T02:14:02;1.92;;;1.77;;
12768;SDS011;6448;48.916;8.990;2022-10-31T02:15:04;2.67;;;2.00;;
12768;SDS011;6448;48.916;8.990;2022-10-31T02:16:08;1.75;;;1.65;;
12768;SDS011;6448;48.916;8.990;2022-10-31T02:17:10;2.72;;;1.80;;
12768;SDS011;6448;48.916;8.990;2022-10-31T02:18:12;2.00;;;1.80;;
12768;SDS011;6448;48.916;8.990;2022-10-31T02:19:13;1.98;;;1.70;;
12768;SDS011;6448;48.916;8.990;2022-10-31T02:20:22;2.35;;;1.77;;
12768;SDS011;6448;48.916;8.990;2022-10-31T02:21:27;2.05;;;1.85;;
12768;SDS011;6448;48.916;8.990;2022-10-31T02:22:37;2.65;;;2.00;;
12768;SDS011;6448;48.916;8.990;2022-10-31T02:23:58;2.00;;;1.80;;
12768;SDS011;6448;48.916;8.990;2022-10-31T02:25:20;2.17;;;1.80;;
12768;SDS011;6448;48.916;8.990;2022-10-31T02:26:34;2.00;;;1.80;;
12768;SDS011;6448;48.916;8.990;2022-10-31T02:27:55;2.60;;;1.92;;
12768;SDS011;6448;48.916;8.990;2022-10-31T02:29:25;2.88;;;2.00;;
12768;SDS011;6448;48.916;8.990;2022-10-31T02:31:00;2.22;;;2.03;;
12768;SDS011;6448;48.916;8.990;2022-10-31T02:32:13;2.00;;;1.80;;
12768;SDS011;6448;48.916;8.990;2022-10-31T02:33:20;2.28;;;1.90;;
12768;SDS011;6448;48.916;8.990;2022-10-31T02:34:28;2.75;;;2.05;;
12768;SDS011;6448;48.916;8.990;2022-10-31T02:35:44;2.22;;;1.90;;
12768;SDS011;6448;48.916;8.990;2022-10-31T02:36:55;2.08;;;1.80;;
12768;SDS011;6448;48.916;8.990;2022-10-31T02:38:01;2.60;;;2.10;;
12768;SDS011;6448;48.916;8.990;2022-10-31T02:39:24;1.80;;;1.70;;
12768;SDS011;6448;48.916;8.990;2022-10-31T02:40:27;2.83;;;1.98;;
12768;SDS011;6448;48.916;8.990;2022-10-31T02:41:45;2.20;;;2.00;;
12768;SDS011;6448;48.916;8.990;2022-10-31T02:42:50;1.95;;;1.85;;
12768;SDS011;6448;48.916;8.990;2022-10-31T02:44:00;1.83;;;1.70;;
12768;SDS011;6448;48.916;8.990;2022-10-31T02:45:07;2.00;;;1.80;;
12768;SDS011;6448;48.916;8.990;2022-10-31T02:46:17;2.20;;;2.00;;
12768;SDS011;6448;48.916;8.990;2022-10-31T02:47:26;2.67;;;2.17;;
12768;SDS011;6448;48.916;8.990;2022-10-31T02:48:31;2.17;;;1.90;;
12768;SDS011;6448;48.916;8.990;2022-10-31T02:49:40;2.35;;;2.00;;
12768;SDS011;6448;48.916;8.990;2022-10-31T02:50:49;1.90;;;1.80;;
12768;SDS011;6448;48.916;8.990;2022-10-31T02:51:56;2.17;;;1.90;;
12768;SDS011;6448;48.916;8.990;2022-10-31T02:52:56;1.90;;;1.70;;
12768;SDS011;6448;48.916;8.990;2022-10-31T02:53:59;2.20;;;2.00;;
12768;SDS011;6448;48.916;8.990;2022-10-31T02:55:08;2.50;;;1.95;;
12768;SDS011;6448;48.916;8.990;2022-10-31T02:56:14;2.75;;;1.80;;
12768;SDS011;6448;48.916;8.990;2022-10-31T02:57:17;2.45;;;1.90;;
12768;SDS011;6448;48.916;8.990;2022-10-31T02:58:24;2.58;;;2.00;;
12768;SDS011;6448;48.916;8.990;2022-10-31T02:59:29;2.95;;;2.13;;
12768;SDS011;6448;48.916;8.990;2022-10-31T03:00:37;2.20;;;2.00;;
12768;SDS011;6448;48.916;8.990;2022-10-31T03:01:47;2.70;;;1.80;;
12768;SDS011;6448;48.916;8.990;2022-10-31T03:02:59;1.80;;;1.70;;
12768;SDS011;6448;48.916;8.990;2022-10-31T03:04:16;2.10;;;1.90;;
12768;SDS011;6448;48.916;8.990;2022-10-31T03:05:37;2.15;;;1.95;;
12768;SDS011;6448;48.916;8.990;2022-10-31T03:06:49;2.45;;;2.10;;
12768;SDS011;6448;48.916;8.990;2022-10-31T03:07:57;2.20;;;2.00;;
12768;SDS011;6448;48.916;8.990;2022-10-31T03:09:06;2.60;;;1.90;;
12768;SDS011;6448;48.916;8.990;2022-10-31T03:10:14;3.00;;;2.20;;
12768;SDS011;6448;48.916;8.990;2022-10-31T03:11:22;2.20;;;2.00;;
12768;SDS011;6448;48.916;8.990;2022-10-31T03:12:29;2.10;;;1.90;;
12768;SDS011;6448;48.916;8.990;2022-10-31T03:13:34;2.80;;;2.10;;
12768;SDS011;6448;48.916;8.990;2022-10-31T03:14:40;2.58;;;2.00;;
12768;SDS011;6448;48.916;8.990;2022-10-31T03:15:45;2.30;;;2.10;;
12768;SDS011;6448;48.916;8.990;2022-10-31T03:16:50;2.90;;;2.00;;
12768;SDS011;6448;48.916;8.990;2022-10-31T03:17:56;2.35;;;2.00;;
12768;SDS011;6448;48.916;8.990;2022-10-31T03:19:02;2.23;;;2.00;;
12768;SDS011;6448;48.916;8.990;2022-10-31T03:20:07;2.10;;;1.90;;
12768;SDS011;6448;48.916;8.990;2022-10-31T03:21:11;1.98;;;1.80;;
12768;SDS011;6448;48.916;8.990;2022-10-31T03:22:15;2.03;;;1.83;;
12768;SDS011;6448;48.916;8.990;2022-10-31T03:23:19;2.28;;;1.88;;
12768;SDS011;6448;48.916;8.990;2022-10-31T03:24:25;2.10;;;1.90;;
12768;SDS011;6448;48.916;8.990;2022-10-31T03:25:32;2.65;;;2.10;;
12768;SDS011;6448;48.916;8.990;2022-10-31T03:26:37;2.70;;;2.00;;
12768;SDS011;6448;48.916;8.990;2022-10-31T03:27:42;2.00;;;1.90;;
12768;SDS011;6448;48.916;8.990;2022-10-31T03:28:48;2.05;;;1.85;;
12768;SDS011;6448;48.916;8.990;2022-10-31T03:29:53;3.05;;;1.88;;
12768;SDS011;6448;48.916;8.990;2022-10-31T03:30:57;2.00;;;1.80;;
12768;SDS011;6448;48.916;8.990;2022-10-31T03:32:02;2.85;;;2.00;;
12768;SDS011;6448;48.916;8.990;2022-10-31T03:33:10;2.60;;;2.05;;
12768;SDS011;6448;48.916;8.990;2022-10-31T03:34:13;2.20;;;2.00;;
12768;SDS011;6448;48.916;8.990;2022-10-31T03:35:17;2.20;;;2.00;;
12768;SDS011;6448;48.916;8.990;2022-10-31T03:36:20;2.17;;;1.98;;
12768;SDS011;6448;48.916;8.990;2022-10-31T03:37:24;2.25;;;2.05;;
12768;SDS011;6448;48.916;8.990;2022-10-31T03:38:27;2.42;;;2.08;;
12768;SDS011;6448;48.916;8.990;2022-10-31T03:39:30;2.38;;;1.80;;
12768;SDS011;6448;48.916;8.990;2022-10-31T03:40:33;2.17;;;1.98;;
12768;SDS011;6448;48.916;8.990;2022-10-31T03:41:38;2.30;;;1.90;;
12768;SDS011;6448;48.916;8.990;2022-10-31T03:42:43;2.10;;;1.77;;
12768;SDS011;6448;48.916;8.990;2022-10-31T03:43:55;1.90;;;1.70;;
12768;SDS011;6448;48.916;8.990;2022-10-31T03:45:02;1.92;;;1.65;;
12768;SDS011;6448;48.916;8.990;2022-10-31T03:46:07;1.98;;;1.77;;
12768;SDS011;6448;48.916;8.990;2022-10-31T03:47:09;2.40;;;1.65;;
12768;SDS011;6448;48.916;8.990;2022-10-31T03:48:11;1.90;;;1.70;;
12768;SDS011;6448;48.916;8.990;2022-10-31T03:49:13;2.28;;;1.80;;
12768;SDS011;6448;48.916;8.990;2022-10-31T03:50:16;2.35;;;1.80;;
12768;SDS011;6448;48.916;8.990;2022-10-31T03:51:20;2.33;;;1.80;;
12768;SDS011;6448;48.916;8.990;2022-10-31T03:52:26;2.50;;;1.90;;
12768;SDS011;6448;48.916;8.990;2022-10-31T03:53:32;2.60;;;1.80;;
12768;SDS011;6448;48.916;8.990;2022-10-31T03:54:39;1.90;;;1.70;;
12768;SDS011;6448;48.916;8.990;2022-10-31T03:55:43;2.92;;;1.60;;
12768;SDS011;6448;48.916;8.990;2022-10-31T03:56:52;2.28;;;1.75;;
12768;SDS011;6448;48.916;8.990;2022-10-31T03:57:57;1.70;;;1.60;;
12768;SDS011;6448;48.916;8.990;2022-10-31T03:59:01;2.13;;;1.92;;
12768;SDS011;6448;48.916;8.990;2022-10-31T04:00:06;1.80;;;1.70;;
12768;SDS011;6448;48.916;8.990;2022-10-31T04:01:18;2.53;;;1.65;;
12768;SDS011;6448;48.916;8.990;2022-10-31T04:02:25;1.88;;;1.70;;
12768;SDS011;6448;48.916;8.990;2022-10-31T04:03:30;2.13;;;1.80;;
12768;SDS011;6448;48.916;8.990;2022-10-31T04:04:35;2.03;;;1.83;;
12768;SDS011;6448;48.916;8.990;2022-10-31T04:05:39;2.13;;;1.73;;
12768;SDS011;6448;48.916;8.990;2022-10-31T04:06:43;1.90;;;1.80;;
12768;SDS011;6448;48.916;8.990;2022-10-31T04:07:49;2.00;;;1.80;;
12768;SDS011;6448;48.916;8.990;2022-10-31T04:08:56;2.20;;;1.77;;
12768;SDS011;6448;48.916;8.990;2022-10-31T04:10:00;1.88;;;1.70;;
12768;SDS011;6448;48.916;8.990;2022-10-31T04:11:06;2.03;;;1.77;;
12768;SDS011;6448;48.916;8.990;2022-10-31T04:12:14;2.13;;;1.60;;
12768;SDS011;6448;48.916;8.990;2022-10-31T04:13:46;1.90;;;1.70;;
12768;SDS011;6448;48.916;8.990;2022-10-31T04:14:55;1.90;;;1.70;;
12768;SDS011;6448;48.916;8.990;2022-10-31T04:15:57;2.13;;;1.90;;
12768;SDS011;6448;48.916;8.990;2022-10-31T04:17:00;1.90;;;1.70;;
12768;SDS011;6448;48.916;8.990;2022-10-31T04:18:10;2.63;;;1.85;;
12768;SDS011;6448;48.916;8.990;2022-10-31T04:19:12;2.03;;;1.70;;
12768;SDS011;6448;48.916;8.990;2022-10-31T04:20:15;2.03;;;1.67;;
12768;SDS011;6448;48.916;8.990;2022-10-31T04:21:18;2.95;;;2.00;;
12768;SDS011;6448;48.916;8.990;2022-10-31T04:22:19;2.00;;;1.75;;
12768;SDS011;6448;48.916;8.990;2022-10-31T04:23:22;1.90;;;1.70;;
12768;SDS011;6448;48.916;8.990;2022-10-31T04:24:24;2.10;;;1.80;;
12768;SDS011;6448;48.916;8.990;2022-10-31T04:25:26;2.17;;;1.90;;
12768;SDS011;6448;48.916;8.990;2022-10-31T04:26:28;2.00;;;1.80;;
12768;SDS011;6448;48.916;8.990;2022-10-31T04:27:31;1.73;;;1.60;;
12768;SDS011;6448;48.916;8.990;2022-10-31T04:28:32;2.63;;;1.80;;
12768;SDS011;6448;48.916;8.990;2022-10-31T04:29:34;1.70;;;1.60;;
12768;SDS011;6448;48.916;8.990;2022-10-31T04:30:34;2.10;;;1.90;;
12768;SDS011;6448;48.916;8.990;2022-10-31T04:31:36;2.05;;;1.85;;
12768;SDS011;6448;48.916;8.990;2022-10-31T04:32:37;1.95;;;1.85;;
12768;SDS011;6448;48.916;8.990;2022-10-31T04:33:40;2.30;;;2.10;;
12768;SDS011;6448;48.916;8.990;2022-10-31T04:34:41;2.25;;;2.00;;
12768;SDS011;6448;48.916;8.990;2022-10-31T04:35:43;2.10;;;1.90;;
12768;SDS011;6448;48.916;8.990;2022-10-31T04:36:44;2.10;;;1.80;;
12768;SDS011;6448;48.916;8.990;2022-10-31T04:37:49;2.00;;;1.63;;
12768;SDS011;6448;48.916;8.990;2022-10-31T04:38:50;2.78;;;1.90;;
12768;SDS011;6448;48.916;8.990;2022-10-31T04:40:10;1.88;;;1.70;;
12768;SDS011;6448;48.916;8.990;2022-10-31T04:41:43;1.77;;;1.67;;
12768;SDS011;6448;48.916;8.990;2022-10-31T04:42:48;1.73;;;1.63;;
12768;SDS011;6448;48.916;8.990;2022-10-31T04:43:49;2.10;;;1.90;;
12768;SDS011;6448;48.916;8.990;2022-10-31T04:44:52;1.90;;;1.70;;
12768;SDS011;6448;48.916;8.990;2022-10-31T04:45:53;2.42;;;1.92;;
12768;SDS011;6448;48.916;8.990;2022-10-31T04:46:56;2.20;;;2.00;;
12768;SDS011;6448;48.916;8.990;2022-10-31T04:47:57;2.00;;;1.77;;
12768;SDS011;6448;48.916;8.990;2022-10-31T04:49:01;2.08;;;1.80;;
12768;SDS011;6448;48.916;8.990;2022-10-31T04:50:02;2.47;;;1.80;;
12768;SDS011;6448;48.916;8.990;2022-10-31T04:51:06;2.10;;;1.90;;
12768;SDS011;6448;48.916;8.990;2022-10-31T04:52:07;2.67;;;1.80;;
12768;SDS011;6448;48.916;8.990;2022-10-31T04:53:09;1.98;;;1.80;;
12768;SDS011;6448;48.916;8.990;2022-10-31T04:54:20;2.50;;;1.95;;
12768;SDS011;6448;48.916;8.990;2022-10-31T04:55:44;2.13;;;1.80;;
12768;SDS011;6448;48.916;8.990;2022-10-31T04:56:55;2.30;;;2.03;;
12768;SDS011;6448;48.916;8.990;2022-10-31T04:57:57;1.92;;;1.77;;
12768;SDS011;6448;48.916;8.990;2022-10-31T04:59:00;2.22;;;2.03;;
12768;SDS011;6448;48.916;8.990;2022-10-31T05:00:10;2.72;;;2.17;;
12768;SDS011;6448;48.916;8.990;2022-10-31T05:01:12;2.97;;;2.40;;
12768;SDS011;6448;48.916;8.990;2022-10-31T05:02:14;3.67;;;2.30;;
12768;SDS011;6448;48.916;8.990;2022-10-31T05:03:24;2.70;;;2.50;;
12768;SDS011;6448;48.916;8.990;2022-10-31T05:04:27;3.53;;;2.67;;
12768;SDS011;6448;48.916;8.990;2022-10-31T05:05:28;2.60;;;2.40;;
12768;SDS011;6448;48.916;8.990;2022-10-31T05:06:34;2.80;;;2.30;;
12768;SDS011;6448;48.916;8.990;2022-10-31T05:07:37;2.47;;;2.28;;
12768;SDS011;6448;48.916;8.990;2022-10-31T05:08:40;3.30;;;2.40;;
12768;SDS011;6448;48.916;8.990;2022-10-31T05:09:43;2.60;;;2.40;;
12768;SDS011;6448;48.916;8.990;2022-10-31T05:10:47;3.55;;;2.55;;
12768;SDS011;6448;48.916;8.990;2022-10-31T05:11:49;3.10;;;2.80;;
12768;SDS011;6448;48.916;8.990;2022-10-31T05:13:10;3.10;;;2.80;;
12768;SDS011;6448;48.916;8.990;2022-10-31T05:14:30;2.50;;;2.30;;
12768;SDS011;6448;48.916;8.990;2022-10-31T05:15:55;2.85;;;2.60;;
12768;SDS011;6448;48.916;8.990;2022-10-31T05:17:00;2.55;;;2.20;;
12768;SDS011;6448;48.916;8.990;2022-10-31T05:18:33;2.97;;;2.30;;
12768;SDS011;6448;48.916;8.990;2022-10-31T05:20:12;2.28;;;2.08;;
12768;SDS011;6448;48.916;8.990;2022-10-31T05:21:38;2.10;;;1.70;;
12768;SDS011;6448;48.916;8.990;2022-10-31T05:22:45;1.92;;;1.73;;
12768;SDS011;6448;48.916;8.990;2022-10-31T05:23:48;1.80;;;1.70;;
12768;SDS011;6448;48.916;8.990;2022-10-31T05:24:51;2.05;;;1.88;;
12768;SDS011;6448;48.916;8.990;2022-10-31T05:25:52;2.25;;;2.05;;
12768;SDS011;6448;48.916;8.990;2022-10-31T05:26:54;2.78;;;2.30;;
12768;SDS011;6448;48.916;8.990;2022-10-31T05:27:56;2.50;;;2.28;;
12768;SDS011;6448;48.916;8.990;2022-10-31T05:28:58;3.13;;;2.50;;
12768;SDS011;6448;48.916;8.990;2022-10-31T05:29:59;2.65;;;2.45;;
12768;SDS011;6448;48.916;8.990;2022-10-31T05:31:01;2.65;;;2.45;;
12768;SDS011;6448;48.916;8.990;2022-10-31T05:32:02;2.60;;;2.40;;
12768;SDS011;6448;48.916;8.990;2022-10-31T05:33:22;2.63;;;2.42;;
12768;SDS011;6448;48.916;8.990;2022-10-31T05:34:44;2.50;;;2.30;;
12768;SDS011;6448;48.916;8.990;2022-10-31T05:36:09;2.30;;;2.10;;
12768;SDS011;6448;48.916;8.990;2022-10-31T05:37:43;2.20;;;2.00;;
12768;SDS011;6448;48.916;8.990;2022-10-31T05:38:45;2.38;;;2.08;;
12768;SDS011;6448;48.916;8.990;2022-10-31T05:40:01;2.13;;;1.93;;
12768;SDS011;6448;48.916;8.990;2022-10-31T05:41:04;2.22;;;2.03;;
12768;SDS011;6448;48.916;8.990;2022-10-31T05:42:07;2.30;;;2.10;;
12768;SDS011;6448;48.916;8.990;2022-10-31T05:43:08;2.10;;;1.90;;
12768;SDS011;6448;48.916;8.990;2022-10-31T05:44:09;2.10;;;1.90;;
12768;SDS011;6448;48.916;8.990;2022-10-31T05:45:31;2.40;;;2.00;;
12768;SDS011;6448;48.916;8.990;2022-10-31T05:46:36;2.10;;;1.90;;
12768;SDS011;6448;48.916;8.990;2022-10-31T05:47:56;1.80;;;1.70;;
12768;SDS011;6448;48.916;8.990;2022-10-31T05:49:28;1.92;;;1.70;;
12768;SDS011;6448;48.916;8.990;2022-10-31T05:50:59;2.50;;;1.90;;
12768;SDS011;6448;48.916;8.990;2022-10-31T05:52:02;2.10;;;1.80;;
12768;SDS011;6448;48.916;8.990;2022-10-31T05:53:12;2.30;;;1.80;;
12768;SDS011;6448;48.916;8.990;2022-10-31T05:54:14;2.87;;;1.77;;
12768;SDS011;6448;48.916;8.990;2022-10-31T05:55:15;2.47;;;1.80;;
12768;SDS011;6448;48.916;8.990;2022-10-31T05:56:31;2.90;;;1.77;;
12768;SDS011;6448;48.916;8.990;2022-10-31T05:57:32;2.05;;;1.77;;
12768;SDS011;6448;48.916;8.990;2022-10-31T05:58:34;2.25;;;1.67;;
12768;SDS011;6448;48.916;8.990;2022-10-31T05:59:39;2.08;;;1.88;;
12768;SDS011;6448;48.916;8.990;2022-10-31T06:00:40;2.55;;;2.05;;
12768;SDS011;6448;48.916;8.990;2022-10-31T06:01:44;2.60;;;2.20;;
12768;SDS011;6448;48.916;8.990;2022-10-31T06:03:10;2.55;;;2.10;;
12768;SDS011;6448;48.916;8.990;2022-10-31T06:04:28;2.20;;;2.00;;
12768;SDS011;6448;48.916;8.990;2022-10-31T06:05:29;2.13;;;1.93;;
12768;SDS011;6448;48.916;8.990;2022-10-31T06:06:31;2.42;;;1.70;;
12768;SDS011;6448;48.916;8.990;2022-10-31T06:07:34;1.90;;;1.80;;
12768;SDS011;6448;48.916;8.990;2022-10-31T06:08:37;2.10;;;1.80;;
12768;SDS011;6448;48.916;8.990;2022-10-31T06:09:45;2.15;;;1.95;;
12768;SDS011;6448;48.916;8.990;2022-10-31T06:10:46;1.77;;;1.67;;
12768;SDS011;6448;48.916;8.990;2022-10-31T06:11:53;1.80;;;1.70;;
12768;SDS011;6448;48.916;8.990;2022-10-31T06:12:59;2.10;;;1.90;;
12768;SDS011;6448;48.916;8.990;2022-10-31T06:14:30;1.90;;;1.70;;
12768;SDS011;6448;48.916;8.990;2022-10-31T06:15:31;2.10;;;1.60;;
12768;SDS011;6448;48.916;8.990;2022-10-31T06:16:33;2.55;;;1.90;;
12768;SDS011;6448;48.916;8.990;2022-10-31T06:18:00;2.25;;;2.00;;
12768;SDS011;6448;48.916;8.990;2022-10-31T06:19:06;2.17;;;1.98;;
12768;SDS011;6448;48.916;8.990;2022-10-31T06:20:09;2.75;;;2.03;;
12768;SDS011;6448;48.916;8.990;2022-10-31T06:21:22;1.92;;;1.80;;
12768;SDS011;6448;48.916;8.990;2022-10-31T06:22:25;2.20;;;1.70;;
12768;SDS011;6448;48.916;8.990;2022-10-31T06:23:27;1.85;;;1.70;;
12768;SDS011;6448;48.916;8.990;2022-10-31T06:24:49;2.40;;;1.80;;
12768;SDS011;6448;48.916;8.990;2022-10-31T06:26:10;1.70;;;1.60;;
12768;SDS011;6448;48.916;8.990;2022-10-31T06:27:12;2.22;;;1.80;;
12768;SDS011;6448;48.916;8.990;2022-10-31T06:28:13;1.90;;;1.60;;
12768;SDS011;6448;48.916;8.990;2022-10-31T06:29:26;2.08;;;1.65;;
12768;SDS011;6448;48.916;8.990;2022-10-31T06:30:49;1.90;;;1.70;;
12768;SDS011;6448;48.916;8.990;2022-10-31T06:31:51;2.08;;;1.80;;
12768;SDS011;6448;48.916;8.990;2022-10-31T06:32:52;1.80;;;1.70;;
12768;SDS011;6448;48.916;8.990;2022-10-31T06:33:54;2.20;;;2.00;;
12768;SDS011;6448;48.916;8.990;2022-10-31T06:34:55;1.83;;;1.65;;
12768;SDS011;6448;48.916;8.990;2022-10-31T06:35:57;1.90;;;1.70;;
12768;SDS011;6448;48.916;8.990;2022-10-31T06:36:58;1.85;;;1.75;;
12768;SDS011;6448;48.916;8.990;2022-10-31T06:38:02;2.05;;;1.85;;
12768;SDS011;6448;48.916;8.990;2022-10-31T06:39:14;2.60;;;1.70;;
12768;SDS011;6448;48.916;8.990;2022-10-31T06:40:16;1.80;;;1.55;;
12768;SDS011;6448;48.916;8.990;2022-10-31T06:41:37;1.90;;;1.50;;
12768;SDS011;6448;48.916;8.990;2022-10-31T06:42:39;1.77;;;1.67;;
12768;SDS011;6448;48.916;8.990;2022-10-31T06:43:45;1.75;;;1.60;;
12768;SDS011;6448;48.916;8.990;2022-10-31T06:45:16;1.85;;;1.63;;